Time;durP1;ratioP1;P1;durP2;ratioP2;P2;SDS_P1;SDS_P2;PMS_P1;PMS_P2;Temp;Humidity;BMP_temperature;BMP_pressure;BME280_temperature;BME280_humidity;BME280_pressure;Samples;Min_cycle;Max_cycle;Signal;HPM_P1;HPM_P2
2024/01/17 00:01:54;;;;;;;29.03;14.27;;;;;;;4.45;72.19;99653.03;5133582;27;20270;-67
2024/01/17 00:04:21;;;;;;;17.37;11.80;;;;;;;4.50;71.19;99650.75;5131468;27;20222;-66
2024/01/17 00:06:48;;;;;;;19.90;11.77;;;;;;;4.55;71.92;99653.78;5112804;28;20271;-65
2024/01/17 00:09:15;;;;;;;22.00;13.13;;;;;;;4.58;71.74;99648.19;5112652;28;20194;-66
2024/01/17 00:11:42;;;;;;;25.73;14.10;;;;;;;4.63;71.67;99651.19;5112726;28;20195;-66
2024/01/17 00:14:08;;;;;;;22.30;13.40;;;;;;;4.66;71.24;99652.69;5112284;28;20191;-66
2024/01/17 00:16:37;;;;;;;16.50;11.83;;;;;;;4.68;71.18;99642.81;5116608;27;20219;-66
2024/01/17 00:19:04;;;;;;;20.20;11.47;;;;;;;4.74;71.04;99648.28;5132740;27;20190;-67
2024/01/17 00:21:30;;;;;;;24.70;12.23;;;;;;;4.81;71.00;99654.59;5133101;27;20255;-66
2024/01/17 00:23:57;;;;;;;24.70;13.67;;;;;;;4.85;70.96;99655.09;5128706;27;20198;-67
2024/01/17 00:26:24;;;;;;;21.23;13.10;;;;;;;4.90;70.73;99653.66;5112446;28;20229;-67
2024/01/17 00:28:50;;;;;;;26.03;14.93;;;;;;;4.91;70.05;99646.59;5118657;27;20249;-67
2024/01/17 00:31:17;;;;;;;28.03;15.60;;;;;;;4.88;70.35;99645.09;5132950;27;20221;-67
2024/01/17 00:33:45;;;;;;;22.43;13.97;;;;;;;4.88;70.87;99650.38;5132630;27;20186;-67
2024/01/17 00:36:12;;;;;;;23.20;13.77;;;;;;;4.89;71.10;99649.38;5124849;27;20221;-67
2024/01/17 00:38:39;;;;;;;16.90;11.87;;;;;;;4.91;70.41;99644.75;5110693;28;20251;-67
2024/01/17 00:41:06;;;;;;;15.63;11.20;;;;;;;4.83;70.49;99655.25;5109754;28;20661;-67
2024/01/17 00:43:33;;;;;;;15.07;11.07;;;;;;;4.81;70.07;99649.31;5109949;28;20191;-67
2024/01/17 00:46:00;;;;;;;11.97;10.37;;;;;;;4.76;70.54;99635.81;5111191;28;20305;-67
2024/01/17 00:48:27;;;;;;;14.23;11.40;;;;;;;4.72;70.58;99654.69;5112149;28;20194;-67
2024/01/17 00:50:55;;;;;;;14.07;10.50;;;;;;;4.73;70.12;99659.81;5111369;28;20190;-67
2024/01/17 00:53:22;;;;;;;17.00;11.93;;;;;;;4.70;70.38;99644.31;5112088;28;20199;-67
2024/01/17 00:55:49;;;;;;;13.40;11.50;;;;;;;4.67;71.06;99636.75;5111726;28;20237;-67
2024/01/17 00:58:18;;;;;;;13.63;11.10;;;;;;;4.57;70.77;99646.53;5112002;28;20655;-67
2024/01/17 01:00:44;;;;;;;14.40;12.13;;;;;;;4.48;71.57;99644.84;5111513;28;20199;-67
2024/01/17 01:03:11;;;;;;;15.73;12.40;;;;;;;4.33;71.62;99654.25;5111979;28;20194;-67
2024/01/17 01:05:38;;;;;;;16.77;12.77;;;;;;;4.21;72.23;99646.78;5126272;28;20221;-67
2024/01/17 01:08:06;;;;;;;15.93;12.30;;;;;;;4.11;72.69;99649.47;5132219;28;20252;-67
2024/01/17 01:10:33;;;;;;;18.17;12.33;;;;;;;4.05;72.13;99644.81;5128287;28;20197;-67
2024/01/17 01:13:00;;;;;;;16.77;12.03;;;;;;;4.07;73.70;99661.28;5112722;28;20622;-67
2024/01/17 01:15:26;;;;;;;13.07;11.77;;;;;;;4.04;72.86;99661.56;5111542;28;20661;-68
2024/01/17 01:17:53;;;;;;;16.17;11.73;;;;;;;3.99;72.87;99666.44;5111963;28;20239;-67
2024/01/17 01:20:20;;;;;;;15.03;12.23;;;;;;;4.03;73.28;99678.31;5111794;28;20190;-67
2024/01/17 01:22:47;;;;;;;15.23;12.23;;;;;;;4.01;73.93;99675.00;5114996;28;20209;-67
2024/01/17 01:25:15;;;;;;;14.67;12.43;;;;;;;3.99;73.71;99674.34;5117549;28;20265;-67
2024/01/17 01:27:42;;;;;;;15.57;12.97;;;;;;;3.98;74.11;99662.19;5113299;28;20194;-66
2024/01/17 01:30:09;;;;;;;18.40;12.80;;;;;;;3.97;73.76;99664.97;5115427;28;20198;-67
2024/01/17 01:32:36;;;;;;;18.70;13.77;;;;;;;3.88;73.45;99661.41;5115669;28;20248;-67
2024/01/17 01:35:03;;;;;;;15.07;12.70;;;;;;;3.84;73.93;99661.88;5116022;27;20186;-67
2024/01/17 01:37:30;;;;;;;18.90;12.97;;;;;;;3.87;73.92;99661.56;5126882;27;20218;-67
2024/01/17 01:39:56;;;;;;;20.17;13.60;;;;;;;3.86;74.79;99660.75;5115458;28;20685;-67
2024/01/17 01:42:24;;;;;;;24.67;15.13;;;;;;;3.87;74.24;99667.66;5115632;28;20251;-67
2024/01/17 01:44:51;;;;;;;20.73;14.27;;;;;;;3.86;74.44;99660.75;5123320;27;20611;-67
2024/01/17 01:47:18;;;;;;;22.57;14.47;;;;;;;3.82;74.34;99656.78;5136040;27;20214;-67
2024/01/17 01:49:48;;;;;;;29.77;16.10;;;;;;;3.81;74.39;99655.13;5121927;27;20635;-68
2024/01/17 01:52:17;;;;;;;32.03;16.37;;;;;;;3.74;74.54;99647.97;5115131;28;20190;-68
2024/01/17 01:54:44;;;;;;;26.50;16.93;;;;;;;3.51;75.52;99655.44;5121822;27;20268;-66
2024/01/17 01:57:11;;;;;;;29.53;15.40;;;;;;;3.32;76.11;99650.31;5135254;27;20198;-67
2024/01/17 01:59:40;;;;;;;29.23;16.73;;;;;;;3.35;76.25;99642.13;5135892;27;20190;-66
2024/01/17 02:02:07;;;;;;;38.27;17.27;;;;;;;3.23;77.02;99634.63;5135358;27;20194;-66
2024/01/17 02:04:35;;;;;;;30.70;16.03;;;;;;;3.26;76.72;99637.75;5135741;27;20194;-67
2024/01/17 02:07:03;;;;;;;28.03;14.87;;;;;;;3.29;76.70;99632.22;5126832;27;20543;-67
2024/01/17 02:09:30;;;;;;;26.03;15.00;;;;;;;3.29;77.01;99642.72;5115094;28;20245;-67
2024/01/17 02:11:58;;;;;;;19.73;13.93;;;;;;;3.26;77.32;99647.44;5114932;28;20650;-68
2024/01/17 02:14:25;;;;;;;28.13;15.00;;;;;;;3.28;76.95;99648.13;5115031;28;20222;-67
2024/01/17 02:16:53;;;;;;;25.17;14.30;;;;;;;3.31;76.93;99643.41;5114845;28;20251;-68
2024/01/17 02:19:22;;;;;;;22.27;13.50;;;;;;;3.27;76.33;99636.78;5126738;27;20440;-68
2024/01/17 02:21:48;;;;;;;19.77;13.57;;;;;;;3.34;75.64;99635.25;5134654;27;20731;-68
2024/01/17 02:24:17;;;;;;;23.63;14.20;;;;;;;3.32;75.74;99634.56;5135678;27;20200;-69
2024/01/17 02:26:44;;;;;;;21.07;12.67;;;;;;;3.33;76.03;99646.72;5135228;27;20290;-67
2024/01/17 02:29:11;;;;;;;15.00;12.47;;;;;;;3.28;76.27;99648.13;5120610;27;20661;-67
2024/01/17 02:31:40;;;;;;;13.13;11.73;;;;;;;3.24;76.77;99650.22;5124267;27;20507;-67
2024/01/17 02:34:06;;;;;;;18.00;12.63;;;;;;;3.20;76.32;99641.00;5135270;27;20202;-68
2024/01/17 02:36:33;;;;;;;21.27;13.43;;;;;;;3.18;77.01;99645.53;5134991;27;20201;-68
2024/01/17 02:39:00;;;;;;;21.50;13.63;;;;;;;3.16;77.12;99638.78;5117035;27;20661;-70
2024/01/17 02:41:28;;;;;;;16.17;13.30;;;;;;;3.06;77.15;99648.53;5134912;27;20492;-68
2024/01/17 02:43:54;;;;;;;15.97;12.57;;;;;;;3.04;77.61;99661.78;5134711;27;20610;-68
2024/01/17 02:46:23;;;;;;;17.80;12.53;;;;;;;3.07;78.34;99660.66;5134749;27;20218;-68
2024/01/17 02:48:50;;;;;;;16.33;12.67;;;;;;;3.01;78.19;99656.81;5134572;27;20190;-69
2024/01/17 02:51:17;;;;;;;16.77;12.93;;;;;;;2.95;78.25;99654.78;5093405;28;20195;-69
2024/01/17 02:53:43;;;;;;;15.93;13.20;;;;;;;2.93;78.09;99653.25;5093957;28;20199;-69
2024/01/17 02:56:10;;;;;;;15.10;12.23;;;;;;;2.96;78.40;99664.28;5093600;28;20198;-69
2024/01/17 02:58:38;;;;;;;16.13;13.03;;;;;;;2.95;78.07;99664.44;5093817;28;20272;-69
2024/01/17 03:01:05;;;;;;;15.53;13.17;;;;;;;2.94;78.66;99660.97;5093836;28;20712;-69
2024/01/17 03:03:31;;;;;;;14.40;12.93;;;;;;;2.92;77.58;99665.56;5134612;27;20197;-69
2024/01/17 03:05:58;;;;;;;14.60;12.77;;;;;;;2.90;78.62;99654.34;5134701;27;20436;-69
2024/01/17 03:08:25;;;;;;;16.17;12.13;;;;;;;2.87;77.67;99659.91;5134200;27;20938;-69
2024/01/17 03:10:52;;;;;;;16.93;13.33;;;;;;;2.82;78.07;99651.63;5121674;27;20436;-68
2024/01/17 03:13:18;;;;;;;23.37;13.73;;;;;;;2.84;78.02;99644.47;5113839;28;20251;-69
2024/01/17 03:15:47;;;;;;;19.20;13.47;;;;;;;2.87;78.78;99636.31;5113768;28;20252;-69
2024/01/17 03:18:16;;;;;;;15.87;13.10;;;;;;;2.77;77.90;99632.88;5114035;28;20198;-68
2024/01/17 03:20:43;;;;;;;17.13;13.97;;;;;;;2.65;78.87;99626.16;5123250;27;20197;-68
2024/01/17 03:23:09;;;;;;;18.83;12.70;;;;;;;2.58;80.03;99627.69;5134510;27;20190;-68
2024/01/17 03:25:36;;;;;;;16.33;13.30;;;;;;;2.63;80.52;99622.88;5134171;27;20194;-68
2024/01/17 03:28:03;;;;;;;20.83;14.67;;;;;;;2.65;79.74;99623.53;5133970;27;20551;-69
2024/01/17 03:30:30;;;;;;;16.90;12.93;;;;;;;2.70;79.17;99626.53;5133852;27;20496;-69
2024/01/17 03:32:58;;;;;;;20.07;12.90;;;;;;;2.73;78.93;99628.88;5118449;27;20819;-69
2024/01/17 03:35:25;;;;;;;20.73;14.53;;;;;;;2.75;78.63;99626.13;5113115;28;20247;-69
2024/01/17 03:37:52;;;;;;;15.67;13.50;;;;;;;2.74;78.46;99635.78;5112878;28;20472;-70
2024/01/17 03:40:19;;;;;;;22.17;14.07;;;;;;;2.65;78.40;99627.97;5114074;27;20198;-68
2024/01/17 03:42:45;;;;;;;31.77;18.30;;;;;;;2.64;79.15;99631.53;5125056;27;20251;-68
2024/01/17 03:45:12;;;;;;;22.07;15.13;;;;;;;2.56;79.61;99644.53;5133094;27;21030;-69
2024/01/17 03:47:39;;;;;;;21.37;15.10;;;;;;;2.48;78.76;99640.00;5133634;27;20854;-69
2024/01/17 03:50:09;;;;;;;19.57;14.90;;;;;;;2.54;80.47;99649.94;5133457;27;20431;-69
2024/01/17 03:52:36;;;;;;;23.60;14.80;;;;;;;2.54;79.27;99649.94;5130721;27;20444;-70
2024/01/17 03:55:02;;;;;;;25.03;15.47;;;;;;;2.53;79.43;99661.38;5112661;28;20440;-69
2024/01/17 03:57:29;;;;;;;23.23;15.80;;;;;;;2.57;79.55;99662.75;5112989;28;20440;-69
2024/01/17 03:59:56;;;;;;;25.43;15.97;;;;;;;2.60;79.29;99666.88;5112655;28;20248;-71
2024/01/17 04:02:22;;;;;;;24.23;15.57;;;;;;;2.62;78.80;99673.63;5112485;28;20883;-69
2024/01/17 04:04:49;;;;;;;26.40;15.87;;;;;;;2.55;79.02;99677.81;5116413;27;20440;-68
2024/01/17 04:07:20;;;;;;;23.73;16.43;;;;;;;2.58;79.22;99679.31;5133241;27;20479;-69
2024/01/17 04:09:47;;;;;;;27.33;16.43;;;;;;;2.56;79.07;99689.09;5133561;27;20492;-70
2024/01/17 04:12:14;;;;;;;24.07;15.73;;;;;;;2.48;78.40;99691.59;5133426;27;20465;-67
2024/01/17 04:14:41;;;;;;;31.00;15.73;;;;;;;2.39;80.02;99695.91;5116207;27;20490;-69
2024/01/17 04:17:10;;;;;;;28.13;17.07;;;;;;;2.39;80.98;99698.50;5108799;28;20479;-68
2024/01/17 04:19:37;;;;;;;32.33;18.20;;;;;;;2.40;79.69;99704.56;5103857;28;20487;-69
2024/01/17 04:22:04;;;;;;;27.10;17.53;;;;;;;2.38;79.95;99696.88;5112055;28;20432;-68
2024/01/17 04:24:32;;;;;;;32.17;18.37;;;;;;;2.41;80.47;99701.81;5121212;27;20782;-70
2024/01/17 04:26:58;;;;;;;25.40;16.60;;;;;;;2.40;80.01;99694.91;5111864;28;20542;-70
2024/01/17 04:29:25;;;;;;;30.47;16.87;;;;;;;2.40;79.74;99701.94;5112062;28;20576;-70
2024/01/17 04:31:52;;;;;;;32.60;17.53;;;;;;;2.42;80.36;99702.66;5111956;28;20452;-69
2024/01/17 04:34:19;;;;;;;32.50;16.40;;;;;;;2.39;80.20;99703.75;5112468;28;20951;-69
2024/01/17 04:36:46;;;;;;;23.97;16.00;;;;;;;2.42;80.25;99695.63;5116950;27;20497;-69
2024/01/17 04:39:14;;;;;;;22.07;15.27;;;;;;;2.44;79.76;99698.91;5111467;28;20436;-68
2024/01/17 04:41:42;;;;;;;24.73;14.63;;;;;;;2.46;78.95;99697.00;5111989;28;20440;-68
2024/01/17 04:44:10;;;;;;;25.70;16.13;;;;;;;2.48;79.22;99699.44;5115404;28;20493;-69
2024/01/17 04:46:38;;;;;;;24.40;15.27;;;;;;;2.43;78.23;99704.28;5111263;28;20877;-70
2024/01/17 04:49:05;;;;;;;32.97;16.30;;;;;;;2.41;79.50;99703.63;5111492;28;21012;-69
2024/01/17 04:51:32;;;;;;;31.13;16.17;;;;;;;2.35;78.96;99705.00;5111549;28;20443;-69
2024/01/17 04:53:59;;;;;;;30.73;16.97;;;;;;;2.33;80.31;99701.69;5110438;28;20884;-69
2024/01/17 04:56:26;;;;;;;24.73;15.33;;;;;;;2.22;79.46;99704.47;5111686;28;20592;-70
2024/01/17 04:58:54;;;;;;;25.33;16.33;;;;;;;2.21;80.87;99718.50;5111476;28;20195;-70
2024/01/17 05:01:21;;;;;;;40.77;18.03;;;;;;;2.11;81.46;99728.16;5111926;28;20436;-70
2024/01/17 05:03:48;;;;;;;25.53;17.27;;;;;;;2.15;80.98;99729.53;5113129;28;21017;-69
2024/01/17 05:06:15;;;;;;;24.63;17.63;;;;;;;2.07;80.90;99732.03;5132444;28;20492;-69
2024/01/17 05:08:41;;;;;;;35.67;18.17;;;;;;;2.02;81.04;99729.00;5120028;28;20892;-69
2024/01/17 05:11:08;;;;;;;40.60;18.30;;;;;;;1.99;81.95;99736.28;5110861;28;20459;-69
2024/01/17 05:13:35;;;;;;;34.73;18.30;;;;;;;2.01;82.28;99732.59;5111693;28;20444;-69
2024/01/17 05:16:03;;;;;;;39.23;18.87;;;;;;;1.99;82.67;99739.72;5116085;28;20946;-68
2024/01/17 05:18:30;;;;;;;31.80;17.73;;;;;;;2.06;81.57;99735.63;5122009;28;20975;-68
2024/01/17 05:20:57;;;;;;;66.90;36.87;;;;;;;2.00;80.99;99746.63;5111596;28;20436;-69
2024/01/17 05:23:23;;;;;;;51.17;28.13;;;;;;;1.97;80.95;99746.91;5110843;28;20440;-70
2024/01/17 05:25:50;;;;;;;67.50;34.40;;;;;;;2.00;82.07;99746.63;5127959;28;20436;-70
2024/01/17 05:28:17;;;;;;;53.30;26.07;;;;;;;1.97;81.31;99749.53;5123372;28;20472;-70
2024/01/17 05:30:43;;;;;;;61.47;29.50;;;;;;;1.93;82.17;99749.94;5111748;28;20497;-70
2024/01/17 05:33:12;;;;;;;72.33;36.07;;;;;;;1.95;81.93;99756.69;5111075;28;20440;-70
2024/01/17 05:35:38;;;;;;;74.37;33.57;;;;;;;1.98;81.92;99759.03;5108182;28;20435;-69
2024/01/17 05:38:06;;;;;;;49.70;28.53;;;;;;;1.92;82.12;99759.56;5121307;28;20525;-70
2024/01/17 05:40:32;;;;;;;45.43;25.07;;;;;;;1.96;83.37;99766.19;5111356;28;20452;-70
2024/01/17 05:43:00;;;;;;;43.20;24.80;;;;;;;1.96;82.18;99768.81;5111411;28;20801;-69
2024/01/17 05:45:27;;;;;;;44.37;23.33;;;;;;;1.92;82.28;99764.00;5111303;28;21005;-69
2024/01/17 05:47:54;;;;;;;37.60;20.97;;;;;;;1.94;81.96;99762.88;5123350;28;20531;-68
2024/01/17 05:50:22;;;;;;;33.03;21.93;;;;;;;1.86;82.57;99765.34;5110932;28;20493;-69
2024/01/17 05:52:49;;;;;;;30.43;20.20;;;;;;;1.73;83.49;99763.94;5110835;28;20497;-69
2024/01/17 05:55:17;;;;;;;41.93;20.73;;;;;;;1.70;83.76;99769.44;5111092;28;20444;-70
2024/01/17 05:57:44;;;;;;;38.70;21.83;;;;;;;1.81;84.12;99782.44;5110935;28;20460;-71
2024/01/17 06:00:12;;;;;;;40.57;22.30;;;;;;;1.92;83.93;99780.50;5111527;28;20813;-71
2024/01/17 06:02:40;;;;;;;45.13;25.27;;;;;;;1.99;83.06;99791.28;5111691;28;20468;-72
2024/01/17 06:05:08;;;;;;;46.33;28.67;;;;;;;1.98;83.66;99795.72;5111270;28;20433;-68
2024/01/17 06:07:38;;;;;;;57.00;26.03;;;;;;;1.97;82.90;99773.09;5110690;28;20483;-69
2024/01/17 06:10:05;;;;;;;46.83;25.00;;;;;;;2.12;83.06;99771.72;5125153;28;21022;-68
2024/01/17 06:12:32;;;;;;;39.73;20.47;;;;;;;2.16;83.19;99782.78;5131414;28;20950;-69
2024/01/17 06:14:59;;;;;;;36.70;22.33;;;;;;;2.28;82.76;99769.41;5114454;28;20447;-68
2024/01/17 06:17:26;;;;;;;41.47;22.97;;;;;;;2.40;83.02;99781.41;5126836;27;20929;-68
2024/01/17 06:19:53;;;;;;;37.27;20.20;;;;;;;2.49;81.89;99791.06;5117632;27;20443;-69
2024/01/17 06:22:20;;;;;;;34.70;18.60;;;;;;;2.69;82.03;99782.22;5114497;28;20938;-68
2024/01/17 06:24:48;;;;;;;45.37;17.87;;;;;;;2.86;81.31;99784.13;5110565;28;20436;-70
2024/01/17 06:27:15;;;;;;;24.27;15.93;;;;;;;2.96;80.69;99789.38;5113814;28;20880;-72
2024/01/17 06:29:42;;;;;;;37.17;15.40;;;;;;;3.43;85.92;99788.44;5114297;28;20661;-71
2024/01/17 06:32:08;;;;;;;25.17;15.07;;;;;;;4.00;83.74;99801.31;5114468;28;20539;-71
2024/01/17 06:34:36;;;;;;;39.03;16.47;;;;;;;4.45;82.17;99797.66;5117002;27;20201;-72
2024/01/17 06:37:03;;;;;;;20.57;15.77;;;;;;;4.78;78.31;99802.25;5133338;27;20312;-70
2024/01/17 06:39:30;;;;;;;36.03;16.50;;;;;;;4.99;74.22;99823.78;5109521;28;20982;-67
2024/01/17 06:41:58;;;;;;;25.53;15.87;;;;;;;5.04;73.45;99829.44;5113128;28;20195;-68
2024/01/17 06:44:25;;;;;;;26.90;16.03;;;;;;;5.23;71.32;99838.97;5114076;27;20278;-67
2024/01/17 06:46:52;;;;;;;23.13;15.27;;;;;;;5.24;69.08;99844.06;5131170;27;20627;-70
2024/01/17 06:49:19;;;;;;;16.13;13.03;;;;;;;5.15;69.07;99837.09;5113759;28;20211;-70
2024/01/17 06:51:47;;;;;;;22.50;12.47;;;;;;;5.12;70.73;99831.31;5113671;28;20217;-69
2024/01/17 06:54:14;;;;;;;21.40;12.23;;;;;;;5.26;67.99;99847.38;5109494;27;20199;-67
2024/01/17 06:56:41;;;;;;;12.30;11.00;;;;;;;5.45;67.84;99855.09;5109991;27;20191;-68
2024/01/17 06:59:09;;;;;;;17.33;13.07;;;;;;;5.38;66.33;99856.69;5110455;28;20299;-69
2024/01/17 07:01:35;;;;;;;22.37;13.03;;;;;;;5.37;65.54;99862.09;5110572;27;20199;-69
2024/01/17 07:04:03;;;;;;;11.47;10.27;;;;;;;5.42;65.43;99865.94;5112510;27;20222;-70
2024/01/17 07:06:29;;;;;;;15.33;9.70;;;;;;;5.65;65.79;99864.41;5109794;28;20221;-69
2024/01/17 07:08:58;;;;;;;12.17;10.43;;;;;;;5.90;63.49;99870.69;5109482;28;20258;-69
2024/01/17 07:11:24;;;;;;;12.60;10.87;;;;;;;5.90;64.80;99864.59;5110214;28;20205;-70
2024/01/17 07:13:51;;;;;;;15.93;11.13;;;;;;;6.20;64.31;99861.44;5109589;28;20199;-68
2024/01/17 07:16:19;;;;;;;16.43;11.50;;;;;;;6.63;61.96;99869.16;5109409;28;20261;-69
2024/01/17 07:18:46;;;;;;;22.17;12.00;;;;;;;6.87;61.19;99861.28;5110335;28;20215;-68
2024/01/17 07:21:13;;;;;;;16.07;10.27;;;;;;;7.09;60.26;99850.88;5110071;28;20259;-69
2024/01/17 07:23:40;;;;;;;26.33;12.43;;;;;;;7.40;58.74;99858.97;5112164;27;20190;-68
2024/01/17 07:26:07;;;;;;;25.27;12.40;;;;;;;7.54;59.71;99845.06;5109343;28;20191;-67
2024/01/17 07:28:34;;;;;;;20.60;11.30;;;;;;;7.63;57.82;99850.16;5109574;27;20220;-70
2024/01/17 07:31:01;;;;;;;12.73;10.47;;;;;;;7.93;57.34;99835.38;5108876;28;20186;-68
2024/01/17 07:33:29;;;;;;;20.27;11.97;;;;;;;8.31;56.29;99835.41;5109709;28;20202;-70
2024/01/17 07:35:55;;;;;;;21.77;12.30;;;;;;;8.63;55.22;99834.41;5108885;28;20202;-68
2024/01/17 07:38:22;;;;;;;21.60;10.47;;;;;;;8.59;54.11;99838.41;5109299;27;20234;-68
2024/01/17 07:40:49;;;;;;;16.40;9.53;;;;;;;8.42;54.25;99837.66;5109397;28;20194;-68
2024/01/17 07:43:16;;;;;;;19.90;10.90;;;;;;;8.50;55.36;99840.25;5109563;28;20252;-68
2024/01/17 07:45:43;;;;;;;22.10;12.73;;;;;;;8.68;54.53;99847.94;5109332;27;20671;-70
2024/01/17 07:48:10;;;;;;;15.17;11.50;;;;;;;8.95;54.23;99842.94;5109484;28;20270;-78
2024/01/17 07:50:39;;;;;;;26.13;13.13;;;;;;;9.22;52.83;99844.22;5109706;28;20203;-70
2024/01/17 07:53:07;;;;;;;23.00;11.77;;;;;;;9.37;52.79;99847.72;5109700;28;20631;-69
2024/01/17 07:55:34;;;;;;;12.23;10.43;;;;;;;9.33;51.70;99838.47;5110761;27;20226;-70
2024/01/17 07:58:00;;;;;;;14.23;11.33;;;;;;;9.50;52.16;99845.28;5108183;28;20626;-70
2024/01/17 08:00:28;;;;;;;16.97;11.47;;;;;;;9.78;50.28;99833.06;5108897;28;20198;-68
2024/01/17 08:02:55;;;;;;;15.83;11.77;;;;;;;9.59;50.09;99828.28;5109538;28;20217;-69
2024/01/17 08:05:22;;;;;;;14.50;10.50;;;;;;;9.66;50.08;99834.50;5109347;28;20190;-68
2024/01/17 08:07:50;;;;;;;19.70;11.97;;;;;;;9.70;50.12;99836.63;5107074;28;20214;-69
2024/01/17 08:10:17;;;;;;;13.13;9.80;;;;;;;9.67;50.97;99841.47;5109216;28;20657;-68
2024/01/17 08:12:44;;;;;;;16.80;10.47;;;;;;;9.51;51.04;99837.16;5111887;27;20320;-68
2024/01/17 08:15:11;;;;;;;18.77;9.63;;;;;;;9.41;51.78;99836.59;5110467;27;20233;-68
2024/01/17 08:17:41;;;;;;;10.87;9.73;;;;;;;9.51;51.70;99831.00;5108066;28;20194;-69
2024/01/17 08:20:08;;;;;;;18.50;10.50;;;;;;;9.60;51.41;99829.94;5108698;28;20198;-67
2024/01/17 08:22:35;;;;;;;10.63;9.53;;;;;;;9.70;49.48;99814.56;5114161;27;20894;-68
2024/01/17 08:25:03;;;;;;;10.80;9.73;;;;;;;9.67;49.37;99796.38;5108903;28;20190;-67
2024/01/17 08:27:30;;;;;;;10.87;9.77;;;;;;;10.05;48.98;99825.28;5108998;27;20195;-68
2024/01/17 08:29:57;;;;;;;29.20;12.00;;;;;;;10.45;48.63;99821.28;5111898;27;20187;-69
2024/01/17 08:32:23;;;;;;;20.17;13.17;;;;;;;10.72;46.57;99812.59;5109418;27;20200;-66
2024/01/17 08:34:50;;;;;;;13.97;11.77;;;;;;;10.92;46.87;99813.63;5108816;28;20265;-65
2024/01/17 08:37:17;;;;;;;25.77;11.63;;;;;;;11.28;45.74;99810.88;5107339;28;20224;-66
2024/01/17 08:39:44;;;;;;;22.00;12.03;;;;;;;11.44;44.51;99808.75;5108065;28;20246;-66
2024/01/17 08:42:12;;;;;;;16.77;12.40;;;;;;;11.41;44.80;99817.09;5115887;27;20248;-66
2024/01/17 08:44:42;;;;;;;16.27;12.27;;;;;;;11.22;46.17;99820.44;5108418;28;20261;-66
2024/01/17 08:47:09;;;;;;;20.93;12.43;;;;;;;11.08;45.46;99808.84;5108117;28;20256;-67
2024/01/17 08:49:39;;;;;;;15.13;12.10;;;;;;;11.05;45.78;99813.75;5108879;28;20221;-67
2024/01/17 08:52:07;;;;;;;26.53;11.77;;;;;;;11.17;46.00;99811.38;5110022;27;20219;-67
2024/01/17 08:54:34;;;;;;;22.27;11.80;;;;;;;11.55;44.78;99823.34;5108497;28;20192;-65
2024/01/17 08:57:01;;;;;;;20.90;12.70;;;;;;;11.89;44.07;99816.25;5107162;28;20738;-66
2024/01/17 08:59:29;;;;;;;16.60;11.57;;;;;;;12.07;42.72;99821.84;5107980;28;20247;-66
2024/01/17 09:01:56;;;;;;;17.33;10.60;;;;;;;11.89;42.94;99823.41;5108194;28;20212;-67
2024/01/17 09:04:23;;;;;;;13.57;10.27;;;;;;;11.28;43.95;99814.34;5108033;28;20329;-67
2024/01/17 09:06:51;;;;;;;14.50;11.37;;;;;;;10.96;45.57;99793.63;5107481;28;20554;-68
2024/01/17 09:09:17;;;;;;;13.03;11.40;;;;;;;11.14;45.14;99791.31;5109269;28;20252;-66
2024/01/17 09:11:44;;;;;;;18.07;12.77;;;;;;;11.50;44.66;99776.03;5107634;28;20194;-66
2024/01/17 09:14:11;;;;;;;18.80;10.57;;;;;;;11.89;43.78;99775.47;5107730;28;20681;-67
2024/01/17 09:16:39;;;;;;;16.87;10.57;;;;;;;12.04;42.41;99774.31;5106760;28;20289;-64
2024/01/17 09:19:04;;;;;;;14.20;10.97;;;;;;;11.94;42.53;99773.03;5107466;28;20738;-67
2024/01/17 09:21:31;;;;;;;18.77;11.07;;;;;;;11.88;42.91;99758.69;5112114;28;20202;-65
2024/01/17 09:23:58;;;;;;;32.30;11.93;;;;;;;11.91;42.64;99755.63;5108438;28;20205;-65
2024/01/17 09:26:25;;;;;;;26.83;12.40;;;;;;;11.92;42.98;99759.94;5109141;28;20654;-65
2024/01/17 09:28:51;;;;;;;22.37;13.10;;;;;;;11.80;43.28;99750.84;5108643;28;20221;-66
2024/01/17 09:31:18;;;;;;;18.20;12.23;;;;;;;11.64;42.87;99751.19;5107844;28;20200;-66
2024/01/17 09:33:46;;;;;;;17.90;10.60;;;;;;;11.69;43.14;99743.44;5113219;28;20193;-65
2024/01/17 09:36:13;;;;;;;23.73;10.70;;;;;;;11.30;44.08;99742.38;5108004;28;20255;-66
2024/01/17 09:38:40;;;;;;;15.90;10.77;;;;;;;11.17;44.96;99743.09;5107545;28;20200;-68
2024/01/17 09:41:06;;;;;;;16.37;11.23;;;;;;;11.19;44.82;99751.66;5106612;28;20198;-67
2024/01/17 09:43:33;;;;;;;26.63;11.93;;;;;;;11.19;44.81;99746.34;5115247;28;20257;-66
2024/01/17 09:46:02;;;;;;;18.93;12.70;;;;;;;11.25;44.22;99752.75;5109029;28;20201;-65
2024/01/17 09:48:29;;;;;;;13.97;11.43;;;;;;;11.49;43.71;99747.81;5109233;27;20277;-65
2024/01/17 09:51:00;;;;;;;15.83;10.90;;;;;;;11.91;46.51;99742.31;5111957;28;20205;-64
2024/01/17 09:53:30;;;;;;;21.23;11.57;;;;;;;12.13;43.41;99735.03;5119900;27;20189;-65
2024/01/17 09:55:59;;;;;;;18.20;9.97;;;;;;;12.42;42.11;99748.81;5106990;28;20620;-65
2024/01/17 09:58:28;;;;;;;16.97;11.17;;;;;;;12.53;41.76;99740.25;5110249;28;20210;-65
2024/01/17 10:00:56;;;;;;;30.53;12.53;;;;;;;12.63;41.30;99729.19;5110826;28;20201;-64
2024/01/17 10:03:25;;;;;;;21.97;11.90;;;;;;;12.71;41.08;99723.69;5104608;28;20194;-64
2024/01/17 10:05:54;;;;;;;20.37;12.03;;;;;;;12.58;41.18;99734.31;5110416;28;20277;-64
2024/01/17 10:08:23;;;;;;;15.50;11.83;;;;;;;12.41;42.05;99728.53;5110614;28;20252;-64
2024/01/17 10:10:49;;;;;;;18.87;12.10;;;;;;;12.35;42.30;99728.53;5110932;28;20318;-63
2024/01/17 10:13:16;;;;;;;15.30;12.40;;;;;;;11.85;42.88;99715.69;5113563;27;20274;-65
2024/01/17 10:15:44;;;;;;;17.47;12.30;;;;;;;11.86;43.13;99715.47;5110261;28;20200;-62
2024/01/17 10:18:12;;;;;;;21.53;12.93;;;;;;;11.80;43.80;99702.94;5110282;28;20194;-65
2024/01/17 10:20:39;;;;;;;14.00;12.50;;;;;;;12.03;43.02;99698.13;5110694;28;20197;-65
2024/01/17 10:23:07;;;;;;;18.10;11.50;;;;;;;12.15;42.41;99703.69;5112655;27;20205;-64
2024/01/17 10:25:39;;;;;;;24.37;13.67;;;;;;;11.93;42.55;99643.63;5110633;27;20197;-63
2024/01/17 10:28:07;;;;;;;15.90;11.10;;;;;;;12.13;43.24;99687.09;5111160;27;20640;-64
2024/01/17 10:30:33;;;;;;;31.23;12.73;;;;;;;11.98;43.65;99683.78;5110686;28;20600;-64
2024/01/17 10:33:02;;;;;;;17.90;13.10;;;;;;;12.04;43.51;99683.00;5110643;28;20195;-64
2024/01/17 10:35:29;;;;;;;24.37;12.37;;;;;;;11.75;43.97;99670.81;5109666;28;20201;-65
2024/01/17 10:37:56;;;;;;;20.93;12.17;;;;;;;11.85;44.11;99683.75;5112729;27;20277;-64
2024/01/17 10:40:23;;;;;;;17.47;12.80;;;;;;;11.82;44.64;99681.47;5110515;28;20655;-65
2024/01/17 10:43:04;;;;;;;19.73;13.67;;;;;;;11.64;44.45;99675.88;5110012;28;20212;-65
2024/01/17 10:45:35;;;;;;;15.27;13.27;;;;;;;11.26;44.85;99662.16;5109794;28;20264;-66
2024/01/17 10:48:02;;;;;;;22.53;12.13;;;;;;;11.27;45.33;99652.34;5122500;27;20211;-65
2024/01/17 10:50:30;;;;;;;17.90;12.17;;;;;;;11.45;45.10;99642.81;5115453;27;20222;-67
2024/01/17 10:53:03;;;;;;;15.87;11.07;;;;;;;11.67;45.14;99635.59;5109759;28;20291;-65
2024/01/17 10:55:33;;;;;;;15.60;12.03;;;;;;;11.58;44.73;99632.22;5103279;27;20192;-66
2024/01/17 10:58:07;;;;;;;17.77;12.67;;;;;;;11.58;45.19;99624.25;5114275;27;20274;-64
2024/01/17 11:00:36;;;;;;;21.27;13.57;;;;;;;11.61;45.44;99623.06;5108621;28;20553;-65
2024/01/17 11:03:08;;;;;;;19.33;13.07;;;;;;;11.59;45.09;99623.22;5109663;28;20197;-65
2024/01/17 11:05:43;;;;;;;17.80;12.80;;;;;;;11.74;45.24;99618.59;5107614;28;20653;-65
2024/01/17 11:08:11;;;;;;;23.87;13.07;;;;;;;11.77;45.21;99601.41;5113718;27;20189;-64
2024/01/17 11:10:38;;;;;;;20.97;12.50;;;;;;;11.38;45.80;99598.56;5108996;28;20236;-65
2024/01/17 11:13:09;;;;;;;16.10;12.33;;;;;;;11.24;47.14;99604.88;5109595;28;20255;-64
2024/01/17 11:15:38;;;;;;;20.43;12.57;;;;;;;11.17;46.49;99591.53;5109031;28;20206;-65
2024/01/17 11:18:07;;;;;;;20.07;13.17;;;;;;;11.23;47.02;99593.41;5116846;27;20203;-65
2024/01/17 11:20:33;;;;;;;17.63;11.50;;;;;;;11.01;47.48;99591.88;5108260;28;20261;-65
2024/01/17 11:23:03;;;;;;;14.67;11.37;;;;;;;11.00;47.49;99583.06;5108982;27;20201;-64
2024/01/17 11:25:36;;;;;;;19.67;12.00;;;;;;;11.12;47.50;99574.53;5108360;28;20228;-64